createdAt,value
2023-05-09T00:00:38.274Z,53.93
2023-05-09T00:03:06.369Z,53.64
2023-05-09T00:05:34.504Z,54.25
2023-05-09T00:08:02.417Z,54.44
2023-05-09T00:10:31.015Z,54.31
2023-05-09T00:12:59.929Z,53.40
2023-05-09T00:15:28.957Z,53.89
2023-05-09T00:17:56.557Z,54.49
2023-05-09T00:20:24.196Z,53.89
2023-05-09T00:22:52.373Z,53.00
2023-05-09T00:25:20.000Z,53.01
2023-05-09T00:27:48.924Z,54.32
2023-05-09T00:30:16.562Z,54.44
2023-05-09T00:32:44.331Z,53.83
2023-05-09T00:35:13.254Z,54.30
2023-05-09T00:37:41.799Z,54.31
2023-05-09T00:40:10.066Z,55.59
2023-05-09T00:42:38.270Z,54.77
2023-05-09T00:45:07.195Z,54.66
2023-05-09T00:47:35.851Z,55.01
2023-05-09T00:50:04.170Z,54.72
2023-05-09T00:52:33.466Z,54.89
2023-05-09T00:55:02.976Z,54.06
2023-05-09T00:57:30.702Z,53.95
2023-05-09T00:59:58.404Z,54.19
2023-05-09T01:02:27.535Z,54.00
2023-05-09T01:04:56.156Z,54.31
2023-05-09T01:07:51.262Z,54.09
2023-05-09T01:10:22.270Z,54.84
2023-05-09T01:13:04.669Z,54.77
2023-05-09T01:15:46.003Z,54.60
2023-05-09T01:18:32.633Z,54.84
2023-05-09T01:21:07.417Z,55.98
2023-05-09T01:23:41.567Z,54.56
2023-05-09T01:26:35.688Z,54.18
2023-05-09T01:29:33.719Z,54.37
2023-05-09T01:32:10.090Z,54.25
2023-05-09T01:34:40.348Z,54.82
2023-05-09T01:37:09.747Z,53.55
2023-05-09T01:39:40.290Z,54.62
2023-05-09T01:42:11.376Z,54.27
2023-05-09T01:44:44.428Z,54.55
2023-05-09T01:47:12.276Z,54.51
2023-05-09T01:49:43.069Z,53.70
2023-05-09T01:52:14.064Z,54.16
2023-05-09T01:54:43.884Z,55.02
2023-05-09T01:57:12.193Z,55.41
2023-05-09T01:59:43.057Z,55.06
2023-05-09T02:02:11.640Z,54.92
2023-05-09T02:04:42.278Z,55.13
2023-05-09T02:07:11.792Z,55.41
2023-05-09T02:09:39.710Z,55.78
2023-05-09T02:12:07.716Z,55.58
2023-05-09T02:14:35.825Z,55.96
2023-05-09T02:17:06.448Z,54.96
2023-05-09T02:19:35.899Z,55.77
2023-05-09T02:22:05.158Z,55.39
2023-05-09T02:24:34.645Z,54.92
2023-05-09T02:27:04.450Z,55.65
2023-05-09T02:29:40.220Z,56.09
2023-05-09T02:32:14.390Z,55.65
2023-05-09T02:34:43.208Z,55.37
2023-05-09T02:37:11.157Z,55.35
2023-05-09T02:39:39.075Z,55.67
2023-05-09T02:42:09.431Z,56.11
2023-05-09T02:44:38.865Z,55.93
2023-05-09T02:47:07.844Z,55.90
2023-05-09T02:49:36.789Z,55.03
2023-05-09T02:52:06.100Z,55.16
2023-05-09T02:54:33.773Z,55.37
2023-05-09T02:57:01.487Z,55.71
2023-05-09T02:59:29.619Z,55.53
2023-05-09T03:02:00.220Z,56.86
2023-05-09T03:04:28.107Z,56.50
2023-05-09T03:06:55.920Z,56.06
2023-05-09T03:09:25.621Z,55.65
2023-05-09T03:11:53.290Z,55.79
2023-05-09T03:14:21.340Z,55.97
2023-05-09T03:16:48.980Z,56.12
2023-05-09T03:19:24.710Z,56.91
2023-05-09T03:21:52.493Z,56.06
2023-05-09T03:24:20.466Z,56.75
2023-05-09T03:26:48.583Z,56.14
2023-05-09T03:29:16.536Z,56.09
2023-05-09T03:31:44.327Z,55.94
2023-05-09T03:34:15.336Z,55.85
2023-05-09T03:36:44.876Z,56.04
2023-05-09T03:39:14.825Z,56.29
2023-05-09T03:41:45.860Z,56.10
2023-05-09T03:44:14.088Z,56.63
2023-05-09T03:46:41.625Z,57.02
2023-05-09T03:49:09.966Z,57.05
2023-05-09T03:51:39.882Z,56.60
2023-05-09T03:54:12.688Z,57.15
2023-05-09T03:56:41.710Z,56.09
2023-05-09T03:59:09.991Z,56.17
2023-05-09T04:01:40.318Z,56.92
2023-05-09T04:04:09.259Z,57.28
2023-05-09T04:06:38.099Z,57.53
2023-05-09T04:09:07.983Z,57.33
2023-05-09T04:11:35.897Z,56.75
2023-05-09T04:14:07.332Z,58.18
2023-05-09T04:16:37.093Z,57.02
2023-05-09T04:19:04.913Z,58.44
2023-05-09T04:21:32.904Z,56.43
2023-05-09T04:24:02.309Z,56.02
2023-05-09T04:26:38.550Z,56.19
2023-05-09T04:29:09.185Z,56.18
2023-05-09T04:31:37.661Z,55.78
2023-05-09T04:34:07.305Z,56.35
2023-05-09T04:36:37.076Z,56.10
2023-05-09T04:39:11.090Z,55.92
2023-05-09T04:41:44.547Z,56.12
2023-05-09T04:44:12.213Z,55.94
2023-05-09T04:46:40.462Z,56.45
2023-05-09T04:49:08.045Z,56.55
2023-05-09T04:51:35.739Z,56.29
2023-05-09T04:54:03.814Z,56.77
2023-05-09T04:56:35.420Z,56.16
2023-05-09T04:59:03.072Z,56.00
2023-05-09T05:01:31.294Z,56.27
2023-05-09T05:03:59.956Z,57.28
2023-05-09T05:06:27.648Z,56.44
2023-05-09T05:08:55.415Z,56.63
2023-05-09T05:11:23.301Z,57.05
2023-05-09T05:13:51.462Z,57.23
2023-05-09T05:16:19.233Z,57.50
2023-05-09T05:18:47.220Z,57.20
2023-05-09T05:21:16.387Z,57.64
2023-05-09T05:23:44.914Z,56.09
2023-05-09T05:26:13.529Z,57.06
2023-05-09T05:28:41.085Z,56.69
2023-05-09T05:31:08.697Z,57.10
2023-05-09T05:33:36.306Z,57.02
2023-05-09T05:36:04.411Z,56.35
2023-05-09T05:38:32.114Z,56.18
2023-05-09T05:41:00.338Z,56.53
2023-05-09T05:43:29.233Z,56.80
2023-05-09T05:45:57.447Z,56.39
2023-05-09T05:48:26.754Z,55.74
2023-05-09T05:50:55.152Z,54.96
2023-05-09T05:53:26.363Z,55.61
2023-05-09T05:55:53.900Z,55.64
2023-05-09T05:58:22.054Z,56.34
2023-05-09T06:00:52.428Z,56.87
2023-05-09T06:03:20.298Z,56.40
2023-05-09T06:05:52.318Z,55.68
2023-05-09T06:08:20.130Z,56.10
2023-05-09T06:10:47.663Z,56.35
2023-05-09T06:13:15.597Z,57.20
2023-05-09T06:15:48.028Z,56.16
2023-05-09T06:18:16.311Z,55.45
2023-05-09T06:20:43.927Z,56.28
2023-05-09T06:23:11.439Z,56.19
2023-05-09T06:25:39.217Z,55.93
2023-05-09T06:28:07.687Z,55.68
2023-05-09T06:30:35.272Z,55.91
2023-05-09T06:33:03.180Z,56.90
2023-05-09T06:35:31.152Z,55.90
2023-05-09T06:37:58.697Z,54.80
2023-05-09T06:40:26.303Z,55.14
2023-05-09T06:42:53.885Z,54.70
2023-05-09T06:45:21.446Z,54.68
2023-05-09T06:47:49.361Z,53.83
2023-05-09T06:50:17.001Z,53.30
2023-05-09T06:52:44.655Z,54.10
2023-05-09T06:55:12.380Z,55.47
2023-05-09T06:57:43.106Z,54.98
2023-05-09T07:00:11.435Z,55.45
2023-05-09T07:02:42.205Z,56.10
2023-05-09T07:05:10.772Z,55.80
2023-05-09T07:07:38.829Z,54.90
2023-05-09T07:10:11.393Z,54.80
2023-05-09T07:12:40.854Z,54.84
2023-05-09T07:15:09.125Z,54.38
2023-05-09T07:17:38.998Z,54.46
2023-05-09T07:20:07.242Z,53.85
2023-05-09T07:22:36.985Z,54.18
2023-05-09T07:25:07.587Z,54.64
2023-05-09T07:27:36.550Z,54.58
2023-05-09T07:30:09.270Z,53.86
2023-05-09T07:32:38.089Z,54.06
2023-05-09T07:35:06.098Z,53.66
2023-05-09T07:37:33.783Z,53.58
2023-05-09T07:40:01.641Z,53.34
2023-05-09T07:42:30.529Z,53.64
2023-05-09T07:44:59.186Z,54.87
2023-05-09T07:47:26.823Z,54.09
2023-05-09T07:49:54.602Z,52.36
2023-05-09T07:52:22.512Z,52.37
2023-05-09T07:54:50.279Z,53.00
2023-05-09T07:57:18.030Z,52.32
2023-05-09T07:59:45.898Z,54.34
2023-05-09T08:02:13.619Z,53.53
2023-05-09T08:04:41.729Z,53.23
2023-05-09T08:07:09.528Z,52.63
2023-05-09T08:09:37.657Z,52.01
2023-05-09T08:12:06.071Z,52.75
2023-05-09T08:14:33.701Z,51.18
2023-05-09T08:17:02.527Z,51.24
2023-05-09T08:19:30.270Z,50.30
2023-05-09T08:21:57.785Z,48.62
2023-05-09T08:24:25.350Z,49.48
2023-05-09T08:26:52.977Z,48.93
2023-05-09T08:29:20.601Z,48.06
2023-05-09T08:31:48.216Z,48.62
2023-05-09T08:34:16.080Z,48.14
2023-05-09T08:36:47.055Z,48.32
2023-05-09T08:39:14.741Z,48.46
2023-05-09T08:41:42.999Z,47.28
2023-05-09T08:44:11.121Z,47.34
2023-05-09T08:46:43.299Z,47.92
2023-05-09T08:49:11.189Z,47.60
2023-05-09T08:51:40.040Z,47.25
2023-05-09T08:54:07.979Z,44.93
2023-05-09T08:56:36.047Z,44.82
2023-05-09T08:59:05.922Z,44.21
2023-05-09T09:01:36.594Z,45.20
2023-05-09T09:04:08.940Z,43.55
2023-05-09T09:06:37.229Z,43.18
2023-05-09T09:09:06.634Z,44.23
2023-05-09T09:11:36.922Z,45.24
2023-05-09T09:14:20.380Z,44.87
2023-05-09T09:16:50.129Z,44.14
2023-05-09T09:19:18.744Z,42.11
2023-05-09T09:21:49.864Z,41.88
2023-05-09T09:24:23.822Z,39.25
2023-05-09T09:26:51.680Z,39.48
2023-05-09T09:29:20.723Z,39.47
2023-05-09T09:31:52.332Z,39.64
2023-05-09T09:34:23.200Z,39.69
2023-05-09T09:36:51.140Z,40.18
2023-05-09T09:39:18.698Z,37.54
2023-05-09T09:41:46.271Z,37.59
2023-05-09T09:44:18.302Z,39.38
2023-05-09T09:46:47.272Z,40.08
2023-05-09T09:49:16.461Z,40.45
2023-05-09T09:51:44.699Z,40.24
2023-05-09T09:54:13.200Z,40.09
2023-05-09T09:56:42.884Z,40.84
2023-05-09T09:59:21.813Z,39.83
2023-05-09T10:02:12.339Z,39.32
2023-05-09T10:04:42.737Z,40.53
2023-05-09T10:07:13.737Z,40.25
2023-05-09T10:09:44.015Z,39.69
2023-05-09T10:12:14.771Z,38.92
2023-05-09T10:14:43.583Z,38.66
2023-05-09T10:17:14.905Z,37.51
2023-05-09T10:19:46.618Z,38.55
2023-05-09T10:22:17.983Z,37.97
2023-05-09T10:25:03.628Z,38.71
2023-05-09T10:27:35.036Z,37.83
2023-05-09T10:30:13.964Z,38.88
2023-05-09T10:32:53.692Z,38.68
2023-05-09T10:35:28.052Z,38.74
2023-05-09T10:37:59.715Z,38.09
2023-05-09T10:40:28.829Z,39.85
2023-05-09T10:42:56.595Z,38.73
2023-05-09T10:45:24.702Z,39.68
2023-05-09T10:47:54.077Z,39.18
2023-05-09T10:50:22.489Z,37.44
2023-05-09T10:53:05.656Z,36.68
2023-05-09T10:55:59.119Z,37.90
2023-05-09T10:58:31.992Z,38.18
2023-05-09T11:01:01.301Z,37.53
2023-05-09T11:03:49.959Z,37.04
2023-05-09T11:06:46.498Z,37.52
2023-05-09T11:09:34.123Z,37.97
2023-05-09T11:12:10.117Z,38.11
2023-05-09T11:14:38.184Z,38.83
2023-05-09T11:17:07.768Z,38.12
2023-05-09T11:19:47.316Z,37.05
2023-05-09T11:22:20.829Z,37.39
2023-05-09T11:24:50.154Z,38.04
2023-05-09T11:27:25.826Z,38.11
2023-05-09T11:29:58.414Z,38.21
2023-05-09T11:32:32.426Z,38.06
2023-05-09T11:35:10.387Z,37.76
2023-05-09T11:37:48.673Z,37.65
2023-05-09T11:40:21.074Z,38.25
2023-05-09T11:42:58.369Z,38.46
2023-05-09T11:45:28.811Z,38.03
2023-05-09T11:47:59.552Z,37.81
2023-05-09T11:50:27.382Z,38.33
2023-05-09T11:52:55.070Z,38.77
2023-05-09T11:55:23.022Z,38.38
2023-05-09T11:57:52.777Z,39.64
2023-05-09T12:00:24.816Z,39.52
2023-05-09T12:02:53.305Z,38.80
2023-05-09T12:05:22.899Z,38.33
2023-05-09T12:07:52.501Z,39.36
2023-05-09T12:10:22.055Z,38.25
2023-05-09T12:12:51.755Z,38.62
2023-05-09T12:15:19.920Z,38.53
2023-05-09T12:17:51.343Z,38.44
2023-05-09T12:20:19.786Z,39.00
2023-05-09T12:22:53.359Z,38.07
2023-05-09T12:25:22.848Z,37.56
2023-05-09T12:27:50.670Z,38.79
2023-05-09T12:30:18.773Z,38.37
2023-05-09T12:32:46.798Z,37.46
2023-05-09T12:35:14.918Z,38.08
2023-05-09T12:37:55.414Z,38.38
2023-05-09T12:40:23.410Z,37.46
2023-05-09T12:42:54.391Z,38.53
2023-05-09T12:45:22.748Z,38.50
2023-05-09T12:47:54.033Z,38.92
2023-05-09T12:50:21.880Z,39.09
2023-05-09T12:53:02.518Z,39.33
2023-05-09T12:55:32.905Z,37.94
2023-05-09T12:58:02.417Z,38.64
2023-05-09T13:00:42.496Z,39.11
2023-05-09T13:03:30.692Z,38.79
2023-05-09T13:06:00.354Z,39.04
2023-05-09T13:08:29.174Z,38.69
2023-05-09T13:11:11.849Z,38.31
2023-05-09T13:13:43.036Z,37.82
2023-05-09T13:16:12.801Z,37.91
2023-05-09T13:18:42.483Z,39.03
2023-05-09T13:21:10.027Z,39.14
2023-05-09T13:23:37.686Z,38.86
2023-05-09T13:26:05.310Z,38.07
2023-05-09T13:28:33.059Z,38.61
2023-05-09T13:31:01.419Z,38.27
2023-05-09T13:33:29.196Z,39.33
2023-05-09T13:35:56.768Z,39.91
2023-05-09T13:38:24.436Z,41.18
2023-05-09T13:40:52.028Z,40.38
2023-05-09T13:43:19.906Z,38.84
2023-05-09T13:45:47.450Z,38.66
2023-05-09T13:48:15.722Z,38.99
2023-05-09T13:50:43.248Z,38.82
2023-05-09T13:53:10.864Z,39.13
2023-05-09T13:55:38.565Z,39.45
2023-05-09T13:58:06.574Z,38.63
2023-05-09T14:00:34.349Z,37.91
2023-05-09T14:03:03.147Z,38.64
2023-05-09T14:05:34.395Z,37.37
2023-05-09T14:08:02.080Z,37.58
2023-05-09T14:10:29.868Z,38.08
2023-05-09T14:12:57.656Z,37.67
2023-05-09T14:15:25.209Z,38.23
2023-05-09T14:17:52.810Z,38.55
2023-05-09T14:20:20.969Z,39.56
2023-05-09T14:22:48.877Z,39.18
2023-05-09T14:25:16.498Z,38.89
2023-05-09T14:27:44.123Z,38.62
2023-05-09T14:30:12.718Z,38.87
2023-05-09T14:32:40.925Z,38.64
2023-05-09T14:35:09.588Z,38.73
2023-05-09T14:37:37.755Z,39.29
2023-05-09T14:40:05.957Z,39.46
2023-05-09T14:42:33.809Z,39.47
2023-05-09T14:45:01.563Z,38.99
2023-05-09T14:47:29.496Z,39.84
2023-05-09T14:49:57.254Z,39.97
2023-05-09T14:52:24.917Z,40.57
2023-05-09T14:54:52.580Z,40.42
2023-05-09T14:57:20.154Z,40.34
2023-05-09T14:59:47.755Z,40.20
2023-05-09T15:02:15.278Z,40.33
2023-05-09T15:04:43.972Z,41.49
2023-05-09T15:07:11.940Z,41.08
2023-05-09T15:09:39.792Z,41.62
2023-05-09T15:12:07.616Z,42.59
2023-05-09T15:14:35.456Z,41.24
2023-05-09T15:17:04.430Z,40.57
2023-05-09T15:19:34.052Z,41.26
2023-05-09T15:22:01.820Z,41.86
2023-05-09T15:24:29.794Z,42.44
2023-05-09T15:26:57.299Z,41.41
2023-05-09T15:29:24.822Z,41.29
2023-05-09T15:31:52.502Z,41.54
2023-05-09T15:34:22.328Z,41.11
2023-05-09T15:36:49.928Z,41.93
2023-05-09T15:39:17.471Z,42.89
2023-05-09T15:41:44.970Z,43.75
2023-05-09T15:44:14.521Z,44.10
2023-05-09T15:46:42.141Z,44.26
2023-05-09T15:49:09.609Z,43.88
2023-05-09T15:51:37.116Z,45.50
2023-05-09T15:54:04.675Z,44.95
2023-05-09T15:56:32.633Z,45.35
2023-05-09T15:59:00.413Z,44.57
2023-05-09T16:01:28.143Z,44.25
2023-05-09T16:03:55.939Z,44.31
2023-05-09T16:06:23.539Z,44.54
2023-05-09T16:08:51.084Z,44.70
2023-05-09T16:11:18.568Z,45.51
2023-05-09T16:13:46.749Z,44.48
2023-05-09T16:16:14.268Z,44.55
2023-05-09T16:18:41.899Z,45.00
2023-05-09T16:21:09.507Z,45.60
2023-05-09T16:23:37.187Z,45.29
2023-05-09T16:26:04.788Z,44.92
2023-05-09T16:28:32.505Z,44.09
2023-05-09T16:31:05.039Z,45.47
2023-05-09T16:33:33.633Z,45.13
2023-05-09T16:36:01.580Z,45.59
2023-05-09T16:38:30.067Z,45.84
2023-05-09T16:40:57.608Z,45.22
2023-05-09T16:43:25.753Z,45.59
2023-05-09T16:45:53.321Z,46.11
2023-05-09T16:48:20.920Z,46.64
2023-05-09T16:50:48.773Z,46.99
2023-05-09T16:53:17.541Z,47.03
2023-05-09T16:55:45.244Z,46.89
2023-05-09T16:58:12.826Z,46.96
2023-05-09T17:00:40.658Z,46.97
2023-05-09T17:03:08.337Z,46.80
2023-05-09T17:05:36.076Z,47.09
2023-05-09T17:08:03.760Z,47.48
2023-05-09T17:10:32.213Z,47.93
2023-05-09T17:12:59.930Z,48.79
2023-05-09T17:15:28.538Z,49.14
2023-05-09T17:17:56.356Z,48.11
2023-05-09T17:20:25.723Z,46.82
2023-05-09T17:22:53.253Z,47.45
2023-05-09T17:25:20.740Z,47.76
2023-05-09T17:27:49.377Z,47.92
2023-05-09T17:30:17.925Z,48.34
2023-05-09T17:32:47.026Z,48.62
2023-05-09T17:35:15.131Z,48.50
2023-05-09T17:37:42.750Z,48.94
2023-05-09T17:40:10.778Z,49.34
2023-05-09T17:42:38.748Z,48.14
2023-05-09T17:45:07.036Z,49.18
2023-05-09T17:47:34.712Z,49.82
2023-05-09T17:50:02.245Z,49.68
2023-05-09T17:52:29.959Z,49.00
2023-05-09T17:54:57.458Z,49.53
2023-05-09T17:57:24.972Z,50.16
2023-05-09T17:59:52.648Z,49.69
2023-05-09T18:02:24.289Z,49.84
2023-05-09T18:04:52.464Z,50.03
2023-05-09T18:07:20.321Z,49.12
2023-05-09T18:09:47.955Z,49.19
2023-05-09T18:12:16.026Z,49.15
2023-05-09T18:14:43.553Z,49.11
2023-05-09T18:17:11.057Z,49.11
2023-05-09T18:19:52.389Z,49.66
2023-05-09T18:22:21.758Z,50.00
2023-05-09T18:24:49.401Z,50.16
2023-05-09T18:27:17.009Z,50.08
2023-05-09T18:29:46.888Z,50.20
2023-05-09T18:32:14.913Z,50.79
2023-05-09T18:34:42.570Z,50.96
2023-05-09T18:37:10.643Z,51.15
2023-05-09T18:39:38.297Z,51.22
2023-05-09T18:42:06.530Z,52.29
2023-05-09T18:44:34.141Z,52.18
2023-05-09T18:47:01.795Z,53.26
2023-05-09T18:49:30.057Z,53.70
2023-05-09T18:52:00.020Z,54.22
2023-05-09T18:54:27.616Z,53.96
2023-05-09T18:56:55.169Z,54.63
2023-05-09T18:59:23.601Z,54.51
2023-05-09T19:01:51.263Z,54.94
2023-05-09T19:04:19.724Z,54.92
2023-05-09T19:06:47.915Z,54.92
2023-05-09T19:09:15.593Z,55.46
2023-05-09T19:11:43.456Z,56.29
2023-05-09T19:14:11.041Z,55.73
2023-05-09T19:16:38.576Z,55.77
2023-05-09T19:19:06.339Z,55.87
2023-05-09T19:21:35.612Z,56.63
2023-05-09T19:24:04.773Z,57.24
2023-05-09T19:26:32.610Z,57.04
2023-05-09T19:29:00.772Z,56.72
2023-05-09T19:31:28.407Z,57.37
2023-05-09T19:33:55.899Z,57.63
2023-05-09T19:36:23.425Z,57.48
2023-05-09T19:38:51.014Z,57.82
2023-05-09T19:41:18.563Z,57.61
2023-05-09T19:43:46.980Z,58.65
2023-05-09T19:46:14.533Z,57.87
2023-05-09T19:48:42.227Z,58.57
2023-05-09T19:51:12.388Z,58.97
2023-05-09T19:53:40.942Z,59.12
2023-05-09T19:56:08.858Z,59.08
2023-05-09T19:58:36.567Z,59.38
2023-05-09T20:01:06.843Z,60.33
2023-05-09T20:03:37.115Z,60.29
2023-05-09T20:06:04.840Z,60.19
2023-05-09T20:08:32.647Z,60.62
2023-05-09T20:11:00.308Z,60.52
2023-05-09T20:13:29.498Z,61.22
2023-05-09T20:15:59.141Z,61.75
2023-05-09T20:18:27.026Z,61.52
2023-05-09T20:20:54.970Z,61.71
2023-05-09T20:23:22.780Z,62.15
2023-05-09T20:25:50.234Z,62.31
2023-05-09T20:28:20.329Z,61.66
2023-05-09T20:30:49.029Z,61.09
2023-05-09T20:33:17.346Z,60.88
2023-05-09T20:35:45.032Z,61.15
2023-05-09T20:38:12.526Z,61.83
2023-05-09T20:40:41.465Z,62.18
2023-05-09T20:43:09.067Z,62.61
2023-05-09T20:45:39.830Z,63.54
2023-05-09T20:48:08.057Z,65.13
2023-05-09T20:50:35.941Z,66.50
2023-05-09T20:53:03.488Z,67.01
2023-05-09T20:55:31.040Z,67.48
2023-05-09T20:57:58.675Z,66.76
2023-05-09T21:00:26.345Z,67.64
2023-05-09T21:02:56.915Z,68.82
2023-05-09T21:05:26.016Z,69.78
2023-05-09T21:07:54.003Z,69.92
2023-05-09T21:10:21.574Z,71.01
2023-05-09T21:12:49.619Z,71.49
2023-05-09T21:15:17.260Z,72.74
2023-05-09T21:17:45.023Z,70.86
2023-05-09T21:20:12.772Z,71.42
2023-05-09T21:22:40.465Z,72.03
2023-05-09T21:25:09.618Z,72.18
2023-05-09T21:27:37.399Z,72.01
2023-05-09T21:30:06.194Z,72.75
2023-05-09T21:32:33.805Z,72.54
2023-05-09T21:35:02.587Z,73.35
2023-05-09T21:37:30.405Z,72.88
2023-05-09T21:39:58.025Z,73.11
2023-05-09T21:42:25.590Z,73.46
2023-05-09T21:44:53.117Z,72.73
2023-05-09T21:47:20.868Z,73.61
2023-05-09T21:49:48.418Z,73.40
2023-05-09T21:52:16.542Z,71.89
2023-05-09T21:54:44.287Z,71.64
2023-05-09T21:57:12.028Z,72.17
2023-05-09T21:59:39.787Z,72.15
2023-05-09T22:02:07.366Z,72.71
2023-05-09T22:04:36.211Z,72.92
2023-05-09T22:07:04.002Z,72.15
2023-05-09T22:09:33.041Z,72.61
2023-05-09T22:12:00.641Z,73.43
2023-05-09T22:14:28.304Z,73.78
2023-05-09T22:16:56.033Z,73.20
2023-05-09T22:19:23.600Z,74.37
2023-05-09T22:21:51.276Z,74.19
2023-05-09T22:24:19.029Z,74.26
2023-05-09T22:26:46.589Z,75.17
2023-05-09T22:29:16.562Z,74.83
2023-05-09T22:31:44.965Z,75.26
2023-05-09T22:34:12.528Z,75.15
2023-05-09T22:36:40.023Z,76.32
2023-05-09T22:39:07.560Z,75.86
2023-05-09T22:41:35.054Z,75.82
2023-05-09T22:44:02.659Z,76.22
2023-05-09T22:46:30.746Z,75.77
2023-05-09T22:48:58.300Z,75.06
2023-05-09T22:51:26.175Z,76.22
2023-05-09T22:53:53.735Z,76.97
2023-05-09T22:56:22.360Z,76.47
2023-05-09T22:58:49.981Z,76.72
2023-05-09T23:01:17.693Z,77.24
2023-05-09T23:03:45.387Z,75.31
2023-05-09T23:06:13.037Z,75.23
2023-05-09T23:08:40.628Z,75.59
2023-05-09T23:11:08.174Z,76.42
2023-05-09T23:13:35.709Z,76.31
2023-05-09T23:16:03.658Z,77.80
2023-05-09T23:18:31.812Z,78.60
2023-05-09T23:20:59.335Z,78.81
2023-05-09T23:23:27.208Z,79.90
2023-05-09T23:25:54.828Z,80.68
2023-05-09T23:28:25.379Z,81.96
2023-05-09T23:30:55.976Z,82.31
2023-05-09T23:33:23.861Z,82.67
2023-05-09T23:35:51.455Z,83.47
2023-05-09T23:38:20.027Z,84.54
2023-05-09T23:40:47.700Z,85.04
2023-05-09T23:43:15.296Z,85.06
2023-05-09T23:45:42.925Z,85.20
2023-05-09T23:48:10.529Z,85.48
2023-05-09T23:50:38.130Z,86.59
2023-05-09T23:53:05.753Z,86.87
2023-05-09T23:55:33.626Z,88.33
2023-05-09T23:58:02.554Z,89.62
